createdAt,value
2023-05-19T00:06:04.877Z,102947.09
2023-05-19T00:16:27.472Z,102961.78
2023-05-19T00:26:48.980Z,102960.06
2023-05-19T00:37:10.385Z,102954.84
2023-05-19T00:47:31.892Z,102936.66
2023-05-19T00:57:54.066Z,102930.63
2023-05-19T01:08:16.211Z,102934.06
2023-05-19T01:18:40.751Z,102930.56
2023-05-19T01:29:14.938Z,102917.53
2023-05-19T01:39:37.130Z,102921.88
2023-05-19T01:49:58.563Z,102924.44
2023-05-19T02:00:28.436Z,102940.81
2023-05-19T02:10:51.863Z,102940.81
2023-05-19T02:21:13.546Z,102938.19
2023-05-19T02:31:35.042Z,102931.28
2023-05-19T02:41:56.466Z,102927.78
2023-05-19T02:52:17.892Z,102927.78
2023-05-19T03:02:39.765Z,102922.56
2023-05-19T03:13:01.306Z,102919.09
2023-05-19T03:23:22.731Z,102917.34
2023-05-19T03:33:44.245Z,102917.31
2023-05-19T03:44:05.860Z,102922.47
2023-05-19T03:54:27.435Z,102924.97
2023-05-19T04:04:48.996Z,102913.75
2023-05-19T04:15:13.438Z,102924.09
2023-05-19T04:25:36.252Z,102931.78
2023-05-19T04:35:58.384Z,102936.97
2023-05-19T04:46:24.367Z,102927.56
2023-05-19T04:56:46.190Z,102927.59
2023-05-19T05:07:07.620Z,102936.34
2023-05-19T05:17:29.255Z,102933.75
2023-05-19T05:27:50.723Z,102944.22
2023-05-19T05:38:12.166Z,102944.28
2023-05-19T05:48:33.903Z,102935.69
2023-05-19T05:58:55.332Z,102927.97
2023-05-19T06:09:17.028Z,102916.81
2023-05-19T06:19:38.467Z,102923.75
2023-05-19T06:29:59.862Z,102925.53
2023-05-19T06:40:21.386Z,102934.16
2023-05-19T06:50:42.800Z,102931.50
2023-05-19T07:01:04.191Z,102927.06
2023-05-19T07:11:26.316Z,102930.41
2023-05-19T07:21:47.830Z,102928.56
2023-05-19T07:32:09.354Z,102917.94
2023-05-19T07:42:30.936Z,102912.50
2023-05-19T07:52:52.331Z,102907.13
2023-05-19T08:03:17.761Z,102907.75
2023-05-19T08:13:39.572Z,102898.81
2023-05-19T08:24:01.746Z,102896.84
2023-05-19T08:34:23.177Z,102881.81
2023-05-19T08:44:44.631Z,102884.91
2023-05-19T08:55:09.845Z,102861.78
2023-05-19T09:05:32.179Z,102851.03
2023-05-19T09:15:56.222Z,102849.47
2023-05-19T09:26:18.118Z,102841.84
2023-05-19T09:36:40.305Z,102826.28
2023-05-19T09:47:03.595Z,102818.19
2023-05-19T09:57:25.940Z,102811.19
2023-05-19T10:07:50.091Z,102799.84
2023-05-19T10:18:12.117Z,102803.38
2023-05-19T10:28:41.031Z,102788.94
2023-05-19T10:39:16.630Z,102770.81
2023-05-19T10:49:38.099Z,102766.13
2023-05-19T11:00:11.035Z,102762.78
2023-05-19T11:10:32.493Z,102756.22
2023-05-19T11:21:00.761Z,102746.69
2023-05-19T11:31:23.021Z,102751.06
2023-05-19T11:41:44.568Z,102744.16
2023-05-19T11:52:06.214Z,102741.19
2023-05-19T12:02:28.277Z,102749.38
2023-05-19T12:12:53.376Z,102721.66
2023-05-19T12:23:15.029Z,102715.59
2023-05-19T12:33:36.491Z,102705.72
2023-05-19T12:43:58.025Z,102713.94
2023-05-19T12:54:20.586Z,102704.13
2023-05-19T13:04:42.476Z,102704.56
2023-05-19T13:15:04.177Z,102690.75
2023-05-19T13:25:26.403Z,102686.06
2023-05-19T13:35:47.816Z,102687.81
2023-05-19T13:46:09.350Z,102674.41
2023-05-19T13:56:31.652Z,102679.13
2023-05-19T14:06:53.107Z,102661.22
2023-05-19T14:17:14.597Z,102650.41
2023-05-19T14:27:36.054Z,102661.63
2023-05-19T14:37:57.458Z,102640.34
2023-05-19T14:48:18.997Z,102646.75
2023-05-19T14:58:40.498Z,102634.09
2023-05-19T15:09:02.139Z,102634.09
2023-05-19T15:19:23.645Z,102625.22
2023-05-19T15:29:45.195Z,102615.19
2023-05-19T15:40:07.075Z,102609.75
2023-05-19T15:50:28.985Z,102619.25
2023-05-19T16:00:50.579Z,102621.81
2023-05-19T16:11:12.222Z,102607.00
2023-05-19T16:21:33.617Z,102602.44
2023-05-19T16:31:55.105Z,102588.13
2023-05-19T16:42:16.554Z,102590.25
2023-05-19T16:52:37.949Z,102591.72
2023-05-19T17:02:59.474Z,102583.78
2023-05-19T17:13:20.970Z,102597.50
2023-05-19T17:23:42.363Z,102595.81
2023-05-19T17:34:03.852Z,102597.94
2023-05-19T17:44:25.416Z,102606.28
2023-05-19T17:54:47.063Z,102610.91
2023-05-19T18:05:08.920Z,102623.69
2023-05-19T18:15:30.612Z,102607.28
2023-05-19T18:25:53.272Z,102625.84
2023-05-19T18:36:16.430Z,102639.97
2023-05-19T18:46:38.004Z,102643.47
2023-05-19T18:56:59.619Z,102648.53
2023-05-19T19:07:21.028Z,102657.78
2023-05-19T19:17:42.577Z,102665.84
2023-05-19T19:28:04.058Z,102681.50
2023-05-19T19:38:25.510Z,102692.69
2023-05-19T19:48:46.937Z,102707.25
2023-05-19T19:59:08.377Z,102705.09
2023-05-19T20:09:29.768Z,102723.13
2023-05-19T20:19:51.276Z,102723.69
2023-05-19T20:30:12.701Z,102734.59
2023-05-19T20:40:34.176Z,102747.88
2023-05-19T20:50:55.673Z,102761.16
2023-05-19T21:01:17.294Z,102749.31
2023-05-19T21:11:38.845Z,102750.38
2023-05-19T21:22:00.272Z,102739.25
2023-05-19T21:32:21.773Z,102742.78
2023-05-19T21:42:43.220Z,102757.75
2023-05-19T21:53:04.844Z,102764.94
2023-05-19T22:03:26.844Z,102761.56
2023-05-19T22:13:48.447Z,102767.84
2023-05-19T22:24:09.967Z,102760.50
2023-05-19T22:34:31.517Z,102752.06
2023-05-19T22:44:52.925Z,102756.66
2023-05-19T22:55:14.364Z,102750.56
2023-05-19T23:05:35.919Z,102750.97
2023-05-19T23:15:57.619Z,102749.38
2023-05-19T23:26:19.065Z,102748.47
2023-05-19T23:36:40.829Z,102751.97
2023-05-19T23:47:02.315Z,102752.16
2023-05-19T23:57:23.895Z,102749.53
